sensor_id;sensor_type;location;lat;lon;timestamp;temperature;humidity
64143;DHT22;50437;51.970;5.904;2023-02-04T00:00:37;7.10;99.90
64143;DHT22;50437;51.970;5.904;2023-02-04T00:03:04;7.00;99.90
64143;DHT22;50437;51.970;5.904;2023-02-04T00:05:34;7.00;99.90
64143;DHT22;50437;51.970;5.904;2023-02-04T00:08:05;7.00;99.90
64143;DHT22;50437;51.970;5.904;2023-02-04T00:10:36;7.10;99.90
64143;DHT22;50437;51.970;5.904;2023-02-04T00:13:07;7.10;99.90
64143;DHT22;50437;51.970;5.904;2023-02-04T00:15:34;7.10;99.90
64143;DHT22;50437;51.970;5.904;2023-02-04T00:18:01;7.00;99.90
64143;DHT22;50437;51.970;5.904;2023-02-04T00:20:28;7.10;99.90
64143;DHT22;50437;51.970;5.904;2023-02-04T00:22:55;7.10;99.90
64143;DHT22;50437;51.970;5.904;2023-02-04T00:25:23;7.00;99.90
64143;DHT22;50437;51.970;5.904;2023-02-04T00:27:49;7.10;99.90
64143;DHT22;50437;51.970;5.904;2023-02-04T00:30:20;7.00;99.90
64143;DHT22;50437;51.970;5.904;2023-02-04T00:32:46;7.00;99.90
64143;DHT22;50437;51.970;5.904;2023-02-04T00:35:14;7.00;99.90
64143;DHT22;50437;51.970;5.904;2023-02-04T00:37:40;7.00;99.90
64143;DHT22;50437;51.970;5.904;2023-02-04T00:40:07;6.90;99.90
64143;DHT22;50437;51.970;5.904;2023-02-04T00:42:33;6.80;99.90
64143;DHT22;50437;51.970;5.904;2023-02-04T00:45:00;6.80;99.90
64143;DHT22;50437;51.970;5.904;2023-02-04T00:50:22;6.60;99.90
64143;DHT22;50437;51.970;5.904;2023-02-04T00:53:18;6.60;99.90
64143;DHT22;50437;51.970;5.904;2023-02-04T00:55:44;6.60;99.90
64143;DHT22;50437;51.970;5.904;2023-02-04T00:58:10;6.60;99.90
64143;DHT22;50437;51.970;5.904;2023-02-04T01:00:37;6.60;99.90
64143;DHT22;50437;51.970;5.904;2023-02-04T01:03:03;6.60;99.90
64143;DHT22;50437;51.970;5.904;2023-02-04T01:05:31;6.70;99.90
64143;DHT22;50437;51.970;5.904;2023-02-04T01:07:57;6.70;99.90
64143;DHT22;50437;51.970;5.904;2023-02-04T01:10:26;6.80;99.90
64143;DHT22;50437;51.970;5.904;2023-02-04T01:12:53;6.80;99.90
64143;DHT22;50437;51.970;5.904;2023-02-04T01:15:19;6.70;99.90
64143;DHT22;50437;51.970;5.904;2023-02-04T01:17:47;6.70;99.90
64143;DHT22;50437;51.970;5.904;2023-02-04T01:20:14;6.70;99.90
64143;DHT22;50437;51.970;5.904;2023-02-04T01:22:40;6.60;99.90
64143;DHT22;50437;51.970;5.904;2023-02-04T01:25:06;6.60;99.90
64143;DHT22;50437;51.970;5.904;2023-02-04T01:27:42;6.60;99.90
64143;DHT22;50437;51.970;5.904;2023-02-04T01:30:09;6.50;99.90
64143;DHT22;50437;51.970;5.904;2023-02-04T01:32:36;6.60;99.90
64143;DHT22;50437;51.970;5.904;2023-02-04T01:35:19;6.50;99.90
64143;DHT22;50437;51.970;5.904;2023-02-04T01:37:51;6.40;99.90
64143;DHT22;50437;51.970;5.904;2023-02-04T01:40:18;6.40;99.90
64143;DHT22;50437;51.970;5.904;2023-02-04T01:42:44;6.50;99.90
64143;DHT22;50437;51.970;5.904;2023-02-04T01:45:13;6.60;99.90
64143;DHT22;50437;51.970;5.904;2023-02-04T01:47:41;6.60;99.90
64143;DHT22;50437;51.970;5.904;2023-02-04T01:50:17;6.70;99.90
64143;DHT22;50437;51.970;5.904;2023-02-04T01:52:44;6.70;99.90
64143;DHT22;50437;51.970;5.904;2023-02-04T01:55:12;6.70;99.90
64143;DHT22;50437;51.970;5.904;2023-02-04T01:57:39;6.70;99.90
64143;DHT22;50437;51.970;5.904;2023-02-04T02:00:09;6.60;99.90
64143;DHT22;50437;51.970;5.904;2023-02-04T02:02:48;6.60;99.90
64143;DHT22;50437;51.970;5.904;2023-02-04T02:05:26;6.50;99.90
64143;DHT22;50437;51.970;5.904;2023-02-04T02:07:53;6.40;99.90
64143;DHT22;50437;51.970;5.904;2023-02-04T02:10:20;6.30;99.90
64143;DHT22;50437;51.970;5.904;2023-02-04T02:12:50;6.30;99.90
64143;DHT22;50437;51.970;5.904;2023-02-04T02:15:17;6.20;99.90
64143;DHT22;50437;51.970;5.904;2023-02-04T02:17:43;6.30;99.90
64143;DHT22;50437;51.970;5.904;2023-02-04T02:20:13;6.30;99.90
64143;DHT22;50437;51.970;5.904;2023-02-04T02:25:10;6.20;99.90
64143;DHT22;50437;51.970;5.904;2023-02-04T02:27:36;6.10;99.90
64143;DHT22;50437;51.970;5.904;2023-02-04T02:30:05;6.10;99.90
64143;DHT22;50437;51.970;5.904;2023-02-04T02:32:35;6.10;99.90
64143;DHT22;50437;51.970;5.904;2023-02-04T02:35:01;6.00;99.90
64143;DHT22;50437;51.970;5.904;2023-02-04T02:37:28;6.00;99.90
64143;DHT22;50437;51.970;5.904;2023-02-04T02:39:55;6.00;99.90
64143;DHT22;50437;51.970;5.904;2023-02-04T02:42:24;6.00;99.90
64143;DHT22;50437;51.970;5.904;2023-02-04T02:44:50;5.90;99.90
64143;DHT22;50437;51.970;5.904;2023-02-04T02:47:17;5.80;99.90
64143;DHT22;50437;51.970;5.904;2023-02-04T02:49:45;5.80;99.90
64143;DHT22;50437;51.970;5.904;2023-02-04T02:52:18;5.80;99.90
64143;DHT22;50437;51.970;5.904;2023-02-04T02:54:45;5.80;99.90
64143;DHT22;50437;51.970;5.904;2023-02-04T02:57:20;5.80;99.90
64143;DHT22;50437;51.970;5.904;2023-02-04T02:59:47;5.80;99.90
64143;DHT22;50437;51.970;5.904;2023-02-04T03:02:15;5.70;99.90
64143;DHT22;50437;51.970;5.904;2023-02-04T03:04:44;5.70;99.90
64143;DHT22;50437;51.970;5.904;2023-02-04T03:07:16;5.60;99.90
64143;DHT22;50437;51.970;5.904;2023-02-04T03:09:43;5.60;99.90
64143;DHT22;50437;51.970;5.904;2023-02-04T03:12:09;5.50;99.90
64143;DHT22;50437;51.970;5.904;2023-02-04T03:14:35;5.40;99.90
64143;DHT22;50437;51.970;5.904;2023-02-04T03:17:03;5.40;99.90
64143;DHT22;50437;51.970;5.904;2023-02-04T03:19:33;5.30;99.90
64143;DHT22;50437;51.970;5.904;2023-02-04T03:22:02;5.20;99.90
64143;DHT22;50437;51.970;5.904;2023-02-04T03:24:29;5.20;99.90
64143;DHT22;50437;51.970;5.904;2023-02-04T03:26:56;5.20;99.90
64143;DHT22;50437;51.970;5.904;2023-02-04T03:29:23;5.30;99.90
64143;DHT22;50437;51.970;5.904;2023-02-04T03:31:50;5.20;99.90
64143;DHT22;50437;51.970;5.904;2023-02-04T03:34:16;5.20;99.90
64143;DHT22;50437;51.970;5.904;2023-02-04T03:36:42;5.20;99.90
64143;DHT22;50437;51.970;5.904;2023-02-04T03:39:08;5.20;99.90
64143;DHT22;50437;51.970;5.904;2023-02-04T03:41:34;5.10;99.90
64143;DHT22;50437;51.970;5.904;2023-02-04T03:44:00;5.10;99.90
64143;DHT22;50437;51.970;5.904;2023-02-04T03:46:31;5.10;99.90
64143;DHT22;50437;51.970;5.904;2023-02-04T03:48:59;5.00;99.90
64143;DHT22;50437;51.970;5.904;2023-02-04T03:51:25;4.90;99.90
64143;DHT22;50437;51.970;5.904;2023-02-04T03:53:51;4.80;99.90
64143;DHT22;50437;51.970;5.904;2023-02-04T03:56:17;4.90;99.90
64143;DHT22;50437;51.970;5.904;2023-02-04T03:58:43;4.80;99.90
64143;DHT22;50437;51.970;5.904;2023-02-04T04:01:09;4.80;99.90
64143;DHT22;50437;51.970;5.904;2023-02-04T04:03:36;4.70;99.90
64143;DHT22;50437;51.970;5.904;2023-02-04T04:06:02;4.70;99.90
64143;DHT22;50437;51.970;5.904;2023-02-04T04:08:34;4.70;99.90
64143;DHT22;50437;51.970;5.904;2023-02-04T04:11:04;4.60;99.90
64143;DHT22;50437;51.970;5.904;2023-02-04T04:13:31;4.50;99.90
64143;DHT22;50437;51.970;5.904;2023-02-04T04:15:59;4.50;99.90
64143;DHT22;50437;51.970;5.904;2023-02-04T04:18:26;4.50;99.90
64143;DHT22;50437;51.970;5.904;2023-02-04T04:20:53;4.40;99.90
64143;DHT22;50437;51.970;5.904;2023-02-04T04:23:19;4.40;99.90
64143;DHT22;50437;51.970;5.904;2023-02-04T04:25:45;4.40;99.90
64143;DHT22;50437;51.970;5.904;2023-02-04T04:28:12;4.40;99.90
64143;DHT22;50437;51.970;5.904;2023-02-04T04:30:38;4.40;99.90
64143;DHT22;50437;51.970;5.904;2023-02-04T04:33:04;4.40;99.90
64143;DHT22;50437;51.970;5.904;2023-02-04T04:35:31;4.40;99.90
64143;DHT22;50437;51.970;5.904;2023-02-04T04:38:00;4.40;99.90
64143;DHT22;50437;51.970;5.904;2023-02-04T04:40:27;4.40;99.90
64143;DHT22;50437;51.970;5.904;2023-02-04T04:42:53;4.40;99.90
64143;DHT22;50437;51.970;5.904;2023-02-04T04:45:19;4.40;99.90
64143;DHT22;50437;51.970;5.904;2023-02-04T04:47:46;4.40;99.90
64143;DHT22;50437;51.970;5.904;2023-02-04T04:50:13;4.40;99.90
64143;DHT22;50437;51.970;5.904;2023-02-04T04:52:41;4.40;99.90
64143;DHT22;50437;51.970;5.904;2023-02-04T04:55:10;4.40;99.90
64143;DHT22;50437;51.970;5.904;2023-02-04T04:57:37;4.40;99.90
64143;DHT22;50437;51.970;5.904;2023-02-04T05:00:16;4.40;99.90
64143;DHT22;50437;51.970;5.904;2023-02-04T05:02:43;4.40;99.90
64143;DHT22;50437;51.970;5.904;2023-02-04T05:05:12;4.30;99.90
64143;DHT22;50437;51.970;5.904;2023-02-04T05:07:38;4.40;99.90
64143;DHT22;50437;51.970;5.904;2023-02-04T05:10:04;4.40;99.90
64143;DHT22;50437;51.970;5.904;2023-02-04T05:12:31;4.40;99.90
64143;DHT22;50437;51.970;5.904;2023-02-04T05:14:57;4.50;99.90
64143;DHT22;50437;51.970;5.904;2023-02-04T05:17:24;4.60;99.90
64143;DHT22;50437;51.970;5.904;2023-02-04T05:19:53;4.60;99.90
64143;DHT22;50437;51.970;5.904;2023-02-04T05:22:22;4.60;99.90
64143;DHT22;50437;51.970;5.904;2023-02-04T05:24:48;4.70;99.90
64143;DHT22;50437;51.970;5.904;2023-02-04T05:27:15;4.70;99.90
64143;DHT22;50437;51.970;5.904;2023-02-04T05:29:41;4.80;99.90
64143;DHT22;50437;51.970;5.904;2023-02-04T05:32:10;4.80;99.90
64143;DHT22;50437;51.970;5.904;2023-02-04T05:34:37;4.80;99.90
64143;DHT22;50437;51.970;5.904;2023-02-04T05:37:03;4.90;99.90
64143;DHT22;50437;51.970;5.904;2023-02-04T05:39:29;4.90;99.90
64143;DHT22;50437;51.970;5.904;2023-02-04T05:41:59;4.90;99.90
64143;DHT22;50437;51.970;5.904;2023-02-04T05:44:25;4.90;99.90
64143;DHT22;50437;51.970;5.904;2023-02-04T05:46:52;5.00;99.90
64143;DHT22;50437;51.970;5.904;2023-02-04T05:49:18;4.90;99.90
64143;DHT22;50437;51.970;5.904;2023-02-04T05:51:47;4.90;99.90
64143;DHT22;50437;51.970;5.904;2023-02-04T05:54:13;5.00;99.90
64143;DHT22;50437;51.970;5.904;2023-02-04T05:56:44;4.90;99.90
64143;DHT22;50437;51.970;5.904;2023-02-04T05:59:11;4.90;99.90
64143;DHT22;50437;51.970;5.904;2023-02-04T06:01:37;5.00;99.90
64143;DHT22;50437;51.970;5.904;2023-02-04T06:04:04;5.00;99.90
64143;DHT22;50437;51.970;5.904;2023-02-04T06:06:30;4.90;99.90
64143;DHT22;50437;51.970;5.904;2023-02-04T06:08:57;5.00;99.90
64143;DHT22;50437;51.970;5.904;2023-02-04T06:11:23;5.00;99.90
64143;DHT22;50437;51.970;5.904;2023-02-04T06:13:49;5.00;99.90
64143;DHT22;50437;51.970;5.904;2023-02-04T06:16:15;5.10;99.90
64143;DHT22;50437;51.970;5.904;2023-02-04T06:18:42;5.10;99.90
64143;DHT22;50437;51.970;5.904;2023-02-04T06:21:10;5.10;99.90
64143;DHT22;50437;51.970;5.904;2023-02-04T06:23:36;5.10;99.90
64143;DHT22;50437;51.970;5.904;2023-02-04T06:26:03;5.10;99.90
64143;DHT22;50437;51.970;5.904;2023-02-04T06:28:29;5.20;99.90
64143;DHT22;50437;51.970;5.904;2023-02-04T06:30:55;5.20;99.90
64143;DHT22;50437;51.970;5.904;2023-02-04T06:33:21;5.20;99.90
64143;DHT22;50437;51.970;5.904;2023-02-04T06:35:49;5.20;99.90
64143;DHT22;50437;51.970;5.904;2023-02-04T06:38:18;5.30;99.90
64143;DHT22;50437;51.970;5.904;2023-02-04T06:40:44;5.40;99.90
64143;DHT22;50437;51.970;5.904;2023-02-04T06:43:14;5.40;99.90
64143;DHT22;50437;51.970;5.904;2023-02-04T06:45:40;5.50;99.90
64143;DHT22;50437;51.970;5.904;2023-02-04T06:48:07;5.40;99.90
64143;DHT22;50437;51.970;5.904;2023-02-04T06:50:33;5.50;99.90
64143;DHT22;50437;51.970;5.904;2023-02-04T06:52:59;5.50;99.90
64143;DHT22;50437;51.970;5.904;2023-02-04T06:55:25;5.50;99.90
64143;DHT22;50437;51.970;5.904;2023-02-04T06:57:51;5.50;99.90
64143;DHT22;50437;51.970;5.904;2023-02-04T07:00:18;5.50;99.90
64143;DHT22;50437;51.970;5.904;2023-02-04T07:02:45;5.50;99.90
64143;DHT22;50437;51.970;5.904;2023-02-04T07:05:12;5.50;99.90
64143;DHT22;50437;51.970;5.904;2023-02-04T07:07:39;5.50;99.90
64143;DHT22;50437;51.970;5.904;2023-02-04T07:10:05;5.50;99.90
64143;DHT22;50437;51.970;5.904;2023-02-04T07:12:32;5.50;99.90
64143;DHT22;50437;51.970;5.904;2023-02-04T07:14:58;5.60;99.90
64143;DHT22;50437;51.970;5.904;2023-02-04T07:17:24;5.50;99.90
64143;DHT22;50437;51.970;5.904;2023-02-04T07:19:53;5.50;99.90
64143;DHT22;50437;51.970;5.904;2023-02-04T07:22:35;5.50;99.90
64143;DHT22;50437;51.970;5.904;2023-02-04T07:25:05;5.50;99.90
64143;DHT22;50437;51.970;5.904;2023-02-04T07:27:31;5.50;99.90
64143;DHT22;50437;51.970;5.904;2023-02-04T07:30:02;5.50;99.90
64143;DHT22;50437;51.970;5.904;2023-02-04T07:32:38;5.50;99.90
64143;DHT22;50437;51.970;5.904;2023-02-04T07:35:13;5.50;99.90
64143;DHT22;50437;51.970;5.904;2023-02-04T07:37:51;5.50;99.90
64143;DHT22;50437;51.970;5.904;2023-02-04T07:40:18;5.50;99.90
64143;DHT22;50437;51.970;5.904;2023-02-04T07:42:49;5.50;99.90
64143;DHT22;50437;51.970;5.904;2023-02-04T07:45:35;5.60;99.90
64143;DHT22;50437;51.970;5.904;2023-02-04T07:48:02;5.60;99.90
64143;DHT22;50437;51.970;5.904;2023-02-04T07:50:28;5.60;99.90
64143;DHT22;50437;51.970;5.904;2023-02-04T07:53:16;5.60;99.90
64143;DHT22;50437;51.970;5.904;2023-02-04T07:55:44;5.60;99.90
64143;DHT22;50437;51.970;5.904;2023-02-04T07:58:17;5.60;99.90
64143;DHT22;50437;51.970;5.904;2023-02-04T08:00:48;5.60;99.90
64143;DHT22;50437;51.970;5.904;2023-02-04T08:03:37;5.70;99.90
64143;DHT22;50437;51.970;5.904;2023-02-04T08:06:03;5.80;99.90
64143;DHT22;50437;51.970;5.904;2023-02-04T08:08:31;5.80;99.90
64143;DHT22;50437;51.970;5.904;2023-02-04T08:11:02;5.90;99.90
64143;DHT22;50437;51.970;5.904;2023-02-04T08:13:31;5.90;99.90
64143;DHT22;50437;51.970;5.904;2023-02-04T08:16:34;5.80;99.90
64143;DHT22;50437;51.970;5.904;2023-02-04T08:19:22;5.90;99.90
64143;DHT22;50437;51.970;5.904;2023-02-04T08:21:49;6.00;99.90
64143;DHT22;50437;51.970;5.904;2023-02-04T08:24:18;6.10;99.90
64143;DHT22;50437;51.970;5.904;2023-02-04T08:26:56;6.20;99.90
64143;DHT22;50437;51.970;5.904;2023-02-04T08:29:46;6.30;99.90
64143;DHT22;50437;51.970;5.904;2023-02-04T08:32:21;6.40;99.90
64143;DHT22;50437;51.970;5.904;2023-02-04T08:34:50;6.40;99.90
64143;DHT22;50437;51.970;5.904;2023-02-04T08:37:19;6.50;99.90
64143;DHT22;50437;51.970;5.904;2023-02-04T08:39:50;6.60;99.90
64143;DHT22;50437;51.970;5.904;2023-02-04T08:42:18;6.80;99.90
64143;DHT22;50437;51.970;5.904;2023-02-04T08:44:47;6.90;99.90
64143;DHT22;50437;51.970;5.904;2023-02-04T08:47:15;6.90;99.90
64143;DHT22;50437;51.970;5.904;2023-02-04T08:49:43;6.90;99.90
64143;DHT22;50437;51.970;5.904;2023-02-04T08:52:09;6.90;99.90
64143;DHT22;50437;51.970;5.904;2023-02-04T08:54:36;6.90;99.90
64143;DHT22;50437;51.970;5.904;2023-02-04T08:57:05;6.90;99.90
64143;DHT22;50437;51.970;5.904;2023-02-04T09:00:19;7.00;99.90
64143;DHT22;50437;51.970;5.904;2023-02-04T09:02:45;7.10;99.90
64143;DHT22;50437;51.970;5.904;2023-02-04T09:05:11;7.20;99.90
64143;DHT22;50437;51.970;5.904;2023-02-04T09:07:38;7.30;99.90
64143;DHT22;50437;51.970;5.904;2023-02-04T09:10:07;7.30;99.90
64143;DHT22;50437;51.970;5.904;2023-02-04T09:12:33;7.30;99.90
64143;DHT22;50437;51.970;5.904;2023-02-04T09:15:00;7.40;99.90
64143;DHT22;50437;51.970;5.904;2023-02-04T09:17:36;7.60;99.90
64143;DHT22;50437;51.970;5.904;2023-02-04T09:20:22;7.80;99.90
64143;DHT22;50437;51.970;5.904;2023-02-04T09:23:04;7.90;99.90
64143;DHT22;50437;51.970;5.904;2023-02-04T09:25:46;8.00;99.90
64143;DHT22;50437;51.970;5.904;2023-02-04T09:28:12;8.20;99.90
64143;DHT22;50437;51.970;5.904;2023-02-04T09:30:57;8.20;99.90
64143;DHT22;50437;51.970;5.904;2023-02-04T09:36:38;8.20;99.90
64143;DHT22;50437;51.970;5.904;2023-02-04T09:39:10;8.20;99.90
64143;DHT22;50437;51.970;5.904;2023-02-04T09:41:38;8.20;99.90
64143;DHT22;50437;51.970;5.904;2023-02-04T09:44:09;8.20;99.90
64143;DHT22;50437;51.970;5.904;2023-02-04T09:46:38;8.10;99.90
64143;DHT22;50437;51.970;5.904;2023-02-04T09:49:04;8.10;99.90
64143;DHT22;50437;51.970;5.904;2023-02-04T09:51:32;8.10;99.90
64143;DHT22;50437;51.970;5.904;2023-02-04T09:54:40;8.10;99.90
64143;DHT22;50437;51.970;5.904;2023-02-04T09:57:09;8.10;99.90
64143;DHT22;50437;51.970;5.904;2023-02-04T09:59:38;8.30;99.90
64143;DHT22;50437;51.970;5.904;2023-02-04T10:02:13;8.40;99.90
64143;DHT22;50437;51.970;5.904;2023-02-04T10:04:42;8.50;99.90
64143;DHT22;50437;51.970;5.904;2023-02-04T10:07:11;8.60;99.90
64143;DHT22;50437;51.970;5.904;2023-02-04T10:12:25;8.90;99.90
64143;DHT22;50437;51.970;5.904;2023-02-04T10:14:52;8.90;99.90
64143;DHT22;50437;51.970;5.904;2023-02-04T10:17:21;9.00;99.90
64143;DHT22;50437;51.970;5.904;2023-02-04T10:19:51;9.20;99.90
64143;DHT22;50437;51.970;5.904;2023-02-04T10:22:20;9.20;99.90
64143;DHT22;50437;51.970;5.904;2023-02-04T10:24:50;9.30;99.90
64143;DHT22;50437;51.970;5.904;2023-02-04T10:27:19;9.30;99.90
64143;DHT22;50437;51.970;5.904;2023-02-04T10:29:56;9.30;99.90
64143;DHT22;50437;51.970;5.904;2023-02-04T10:32:26;9.30;99.90
64143;DHT22;50437;51.970;5.904;2023-02-04T10:34:55;9.40;99.90
64143;DHT22;50437;51.970;5.904;2023-02-04T10:37:22;9.50;99.90
64143;DHT22;50437;51.970;5.904;2023-02-04T10:39:55;9.60;99.90
64143;DHT22;50437;51.970;5.904;2023-02-04T10:42:26;9.70;99.90
64143;DHT22;50437;51.970;5.904;2023-02-04T10:44:53;9.50;99.90
64143;DHT22;50437;51.970;5.904;2023-02-04T10:47:23;9.50;99.90
64143;DHT22;50437;51.970;5.904;2023-02-04T10:50:03;9.60;99.90
64143;DHT22;50437;51.970;5.904;2023-02-04T10:52:39;9.90;99.90
64143;DHT22;50437;51.970;5.904;2023-02-04T10:55:13;10.20;99.90
64143;DHT22;50437;51.970;5.904;2023-02-04T10:57:43;10.30;99.90
64143;DHT22;50437;51.970;5.904;2023-02-04T11:00:25;10.40;99.90
64143;DHT22;50437;51.970;5.904;2023-02-04T11:02:58;10.60;99.90
64143;DHT22;50437;51.970;5.904;2023-02-04T11:05:30;11.00;99.90
64143;DHT22;50437;51.970;5.904;2023-02-04T11:08:00;11.70;99.90
64143;DHT22;50437;51.970;5.904;2023-02-04T11:10:32;11.70;99.90
64143;DHT22;50437;51.970;5.904;2023-02-04T11:13:01;11.90;99.90
64143;DHT22;50437;51.970;5.904;2023-02-04T11:15:47;11.30;99.90
64143;DHT22;50437;51.970;5.904;2023-02-04T11:18:25;11.00;99.90
64143;DHT22;50437;51.970;5.904;2023-02-04T11:20:54;11.00;99.90
64143;DHT22;50437;51.970;5.904;2023-02-04T11:26:01;10.60;99.90
64143;DHT22;50437;51.970;5.904;2023-02-04T11:28:37;10.80;99.90
64143;DHT22;50437;51.970;5.904;2023-02-04T11:31:43;11.00;99.90
64143;DHT22;50437;51.970;5.904;2023-02-04T11:34:23;11.20;99.90
64143;DHT22;50437;51.970;5.904;2023-02-04T11:37:10;11.40;99.90
64143;DHT22;50437;51.970;5.904;2023-02-04T11:39:44;12.00;99.90
64143;DHT22;50437;51.970;5.904;2023-02-04T11:42:22;12.40;99.90
64143;DHT22;50437;51.970;5.904;2023-02-04T11:44:50;12.50;99.90
64143;DHT22;50437;51.970;5.904;2023-02-04T11:47:16;12.70;99.90
64143;DHT22;50437;51.970;5.904;2023-02-04T11:49:43;12.70;99.90
64143;DHT22;50437;51.970;5.904;2023-02-04T11:52:12;13.30;99.90
64143;DHT22;50437;51.970;5.904;2023-02-04T11:54:41;13.40;99.90
64143;DHT22;50437;51.970;5.904;2023-02-04T11:57:10;14.00;99.90
64143;DHT22;50437;51.970;5.904;2023-02-04T11:59:40;14.50;99.90
64143;DHT22;50437;51.970;5.904;2023-02-04T12:02:44;14.70;99.90
64143;DHT22;50437;51.970;5.904;2023-02-04T12:05:29;14.30;99.90
64143;DHT22;50437;51.970;5.904;2023-02-04T12:13:46;13.70;99.90
64143;DHT22;50437;51.970;5.904;2023-02-04T12:17:19;13.70;99.90
64143;DHT22;50437;51.970;5.904;2023-02-04T12:20:34;13.80;99.90
64143;DHT22;50437;51.970;5.904;2023-02-04T12:23:09;13.60;99.90
64143;DHT22;50437;51.970;5.904;2023-02-04T12:25:36;13.40;99.90
64143;DHT22;50437;51.970;5.904;2023-02-04T12:28:06;13.60;99.90
64143;DHT22;50437;51.970;5.904;2023-02-04T12:30:36;13.10;99.90
64143;DHT22;50437;51.970;5.904;2023-02-04T12:33:02;12.80;99.90
64143;DHT22;50437;51.970;5.904;2023-02-04T12:35:29;12.60;99.90
64143;DHT22;50437;51.970;5.904;2023-02-04T12:37:55;12.30;99.90
64143;DHT22;50437;51.970;5.904;2023-02-04T12:40:21;11.60;99.90
64143;DHT22;50437;51.970;5.904;2023-02-04T12:42:47;11.40;99.90
64143;DHT22;50437;51.970;5.904;2023-02-04T12:45:16;11.70;99.90
64143;DHT22;50437;51.970;5.904;2023-02-04T12:47:43;11.70;99.90
64143;DHT22;50437;51.970;5.904;2023-02-04T12:50:14;12.00;99.90
64143;DHT22;50437;51.970;5.904;2023-02-04T12:52:40;12.20;99.90
64143;DHT22;50437;51.970;5.904;2023-02-04T12:55:10;12.20;99.90
64143;DHT22;50437;51.970;5.904;2023-02-04T12:57:36;11.80;99.90
64143;DHT22;50437;51.970;5.904;2023-02-04T13:00:02;11.60;99.90
64143;DHT22;50437;51.970;5.904;2023-02-04T13:02:29;11.50;99.90
64143;DHT22;50437;51.970;5.904;2023-02-04T13:04:55;11.50;99.90
64143;DHT22;50437;51.970;5.904;2023-02-04T13:07:21;11.50;99.90
64143;DHT22;50437;51.970;5.904;2023-02-04T13:09:48;11.60;99.90
64143;DHT22;50437;51.970;5.904;2023-02-04T13:12:14;11.40;99.90
64143;DHT22;50437;51.970;5.904;2023-02-04T13:14:40;11.30;99.90
64143;DHT22;50437;51.970;5.904;2023-02-04T13:17:07;11.10;99.90
64143;DHT22;50437;51.970;5.904;2023-02-04T13:19:33;11.20;99.90
64143;DHT22;50437;51.970;5.904;2023-02-04T13:21:59;11.10;99.90
64143;DHT22;50437;51.970;5.904;2023-02-04T13:24:27;11.10;99.90
64143;DHT22;50437;51.970;5.904;2023-02-04T13:26:53;11.00;99.90
64143;DHT22;50437;51.970;5.904;2023-02-04T13:29:20;11.00;99.90
64143;DHT22;50437;51.970;5.904;2023-02-04T13:31:47;10.90;99.90
64143;DHT22;50437;51.970;5.904;2023-02-04T13:34:13;11.00;99.90
64143;DHT22;50437;51.970;5.904;2023-02-04T13:36:39;11.10;99.90
64143;DHT22;50437;51.970;5.904;2023-02-04T13:39:05;10.90;99.90
64143;DHT22;50437;51.970;5.904;2023-02-04T13:41:31;11.10;99.90
64143;DHT22;50437;51.970;5.904;2023-02-04T13:43:58;11.20;99.90
64143;DHT22;50437;51.970;5.904;2023-02-04T13:46:24;11.00;99.90
64143;DHT22;50437;51.970;5.904;2023-02-04T13:48:50;10.90;99.90
64143;DHT22;50437;51.970;5.904;2023-02-04T13:51:16;10.70;99.90
64143;DHT22;50437;51.970;5.904;2023-02-04T13:53:43;10.40;99.90
64143;DHT22;50437;51.970;5.904;2023-02-04T13:56:09;10.30;99.90
64143;DHT22;50437;51.970;5.904;2023-02-04T13:58:35;10.20;99.90
64143;DHT22;50437;51.970;5.904;2023-02-04T14:01:01;10.20;99.90
64143;DHT22;50437;51.970;5.904;2023-02-04T14:03:30;10.20;99.90
64143;DHT22;50437;51.970;5.904;2023-02-04T14:05:56;10.30;99.90
64143;DHT22;50437;51.970;5.904;2023-02-04T14:08:22;10.20;99.90
64143;DHT22;50437;51.970;5.904;2023-02-04T14:10:48;10.20;99.90
64143;DHT22;50437;51.970;5.904;2023-02-04T14:13:14;10.20;99.90
64143;DHT22;50437;51.970;5.904;2023-02-04T14:15:40;10.20;99.90
64143;DHT22;50437;51.970;5.904;2023-02-04T14:18:07;10.20;99.90
64143;DHT22;50437;51.970;5.904;2023-02-04T14:20:33;10.30;99.90
64143;DHT22;50437;51.970;5.904;2023-02-04T14:22:59;10.30;99.90
64143;DHT22;50437;51.970;5.904;2023-02-04T14:25:25;10.20;99.90
64143;DHT22;50437;51.970;5.904;2023-02-04T14:27:52;10.10;99.90
64143;DHT22;50437;51.970;5.904;2023-02-04T14:30:20;9.80;99.90
64143;DHT22;50437;51.970;5.904;2023-02-04T14:32:46;9.70;99.90
64143;DHT22;50437;51.970;5.904;2023-02-04T14:35:13;9.70;99.90
64143;DHT22;50437;51.970;5.904;2023-02-04T14:37:43;9.70;99.90
64143;DHT22;50437;51.970;5.904;2023-02-04T14:40:10;9.60;99.90
64143;DHT22;50437;51.970;5.904;2023-02-04T14:42:36;9.60;99.90
64143;DHT22;50437;51.970;5.904;2023-02-04T14:45:09;9.60;99.90
64143;DHT22;50437;51.970;5.904;2023-02-04T14:47:39;9.70;99.90
64143;DHT22;50437;51.970;5.904;2023-02-04T14:50:06;9.60;99.90
64143;DHT22;50437;51.970;5.904;2023-02-04T14:52:37;9.60;99.90
64143;DHT22;50437;51.970;5.904;2023-02-04T14:55:03;9.60;99.90
64143;DHT22;50437;51.970;5.904;2023-02-04T14:57:30;9.50;99.90
64143;DHT22;50437;51.970;5.904;2023-02-04T14:59:56;9.40;99.90
64143;DHT22;50437;51.970;5.904;2023-02-04T15:02:22;9.50;99.90
64143;DHT22;50437;51.970;5.904;2023-02-04T15:04:48;9.40;99.90
64143;DHT22;50437;51.970;5.904;2023-02-04T15:07:16;9.40;99.90
64143;DHT22;50437;51.970;5.904;2023-02-04T15:09:43;9.40;99.90
64143;DHT22;50437;51.970;5.904;2023-02-04T15:12:09;9.50;99.90
64143;DHT22;50437;51.970;5.904;2023-02-04T15:14:38;9.40;99.90
64143;DHT22;50437;51.970;5.904;2023-02-04T15:17:04;9.40;99.90
64143;DHT22;50437;51.970;5.904;2023-02-04T15:19:30;9.40;99.90
64143;DHT22;50437;51.970;5.904;2023-02-04T15:21:56;9.30;99.90
64143;DHT22;50437;51.970;5.904;2023-02-04T15:24:23;9.40;99.90
64143;DHT22;50437;51.970;5.904;2023-02-04T15:26:51;9.30;99.90
64143;DHT22;50437;51.970;5.904;2023-02-04T15:29:17;9.50;99.90
64143;DHT22;50437;51.970;5.904;2023-02-04T15:31:43;9.50;99.90
64143;DHT22;50437;51.970;5.904;2023-02-04T15:34:10;9.50;99.90
64143;DHT22;50437;51.970;5.904;2023-02-04T15:36:39;9.50;99.90
64143;DHT22;50437;51.970;5.904;2023-02-04T15:39:05;9.50;99.90
64143;DHT22;50437;51.970;5.904;2023-02-04T15:41:31;9.50;99.90
64143;DHT22;50437;51.970;5.904;2023-02-04T15:43:57;9.40;99.90
64143;DHT22;50437;51.970;5.904;2023-02-04T15:46:23;9.40;99.90
64143;DHT22;50437;51.970;5.904;2023-02-04T15:48:49;9.50;99.90
64143;DHT22;50437;51.970;5.904;2023-02-04T15:51:15;9.40;99.90
64143;DHT22;50437;51.970;5.904;2023-02-04T15:53:42;9.40;99.90
64143;DHT22;50437;51.970;5.904;2023-02-04T15:56:11;9.30;99.90
64143;DHT22;50437;51.970;5.904;2023-02-04T15:58:37;9.30;99.90
64143;DHT22;50437;51.970;5.904;2023-02-04T16:01:03;9.40;99.90
64143;DHT22;50437;51.970;5.904;2023-02-04T16:03:30;9.30;99.90
64143;DHT22;50437;51.970;5.904;2023-02-04T16:05:58;9.30;99.90
64143;DHT22;50437;51.970;5.904;2023-02-04T16:08:24;9.30;99.90
64143;DHT22;50437;51.970;5.904;2023-02-04T16:10:50;9.20;99.90
64143;DHT22;50437;51.970;5.904;2023-02-04T16:13:19;9.30;99.90
64143;DHT22;50437;51.970;5.904;2023-02-04T16:15:45;9.20;99.90